Time;durP1;ratioP1;P1;durP2;ratioP2;P2;SDS_P1;SDS_P2;PMS_P1;PMS_P2;Temp;Humidity;BMP_temperature;BMP_pressure;BME280_temperature;BME280_humidity;BME280_pressure;Samples;Min_cycle;Max_cycle;Signal;HPM_P1;HPM_P2
2021/07/22 00:02:28;;;;;;;18.42;10.00;;;;;;;14.13;82.78;96003.56;5038775;28;20410;-79
2021/07/22 00:04:54;;;;;;;16.85;9.88;;;;;;;14.12;83.17;95999.34;5039613;28;20033;-79
2021/07/22 00:07:20;;;;;;;21.85;10.35;;;;;;;14.08;83.42;95993.00;5036918;28;20683;-79
2021/07/22 00:09:47;;;;;;;16.75;9.65;;;;;;;14.09;83.24;95986.66;5048433;28;20057;-78
2021/07/22 00:12:12;;;;;;;18.05;9.52;;;;;;;14.02;83.11;95995.72;5031609;28;20348;-78
2021/07/22 00:14:39;;;;;;;18.25;9.48;;;;;;;14.06;82.62;95995.16;5035693;28;20163;-79
2021/07/22 00:17:05;;;;;;;18.63;9.65;;;;;;;13.99;83.39;95993.66;5031576;28;20038;-79
2021/07/22 00:19:31;;;;;;;19.35;9.52;;;;;;;14.03;82.80;95992.00;5036474;28;20075;-79
2021/07/22 00:21:58;;;;;;;19.45;9.85;;;;;;;13.90;83.19;95984.72;5045692;28;20752;-79
2021/07/22 00:24:24;;;;;;;19.88;10.32;;;;;;;13.90;83.35;95990.00;5053039;28;20029;-78
2021/07/22 00:26:50;;;;;;;19.65;9.98;;;;;;;13.74;83.95;95985.94;5045414;28;20052;-79
2021/07/22 00:29:15;;;;;;;18.00;9.80;;;;;;;13.74;83.59;95985.94;5032972;28;20046;-79
2021/07/22 00:31:41;;;;;;;19.25;9.93;;;;;;;13.69;84.18;95989.38;5036063;28;20059;-79
2021/07/22 00:34:06;;;;;;;15.80;9.30;;;;;;;13.62;83.61;95989.72;5040254;28;20052;-79
2021/07/22 00:36:32;;;;;;;17.45;9.80;;;;;;;13.63;83.54;95993.94;5040194;28;20052;-78
2021/07/22 00:38:57;;;;;;;17.45;10.40;;;;;;;13.61;84.08;95998.72;5043169;28;20044;-79
2021/07/22 00:41:23;;;;;;;17.73;9.88;;;;;;;13.51;84.47;95980.28;5040467;28;20038;-79
2021/07/22 00:43:48;;;;;;;18.95;9.57;;;;;;;13.49;84.38;95993.78;5028588;28;20044;-78
2021/07/22 00:46:15;;;;;;;17.60;9.45;;;;;;;13.49;84.40;95993.00;5032839;28;20120;-79
2021/07/22 00:48:41;;;;;;;18.45;9.20;;;;;;;13.45;84.38;95989.31;5051224;28;20033;-78
2021/07/22 00:51:06;;;;;;;18.17;9.48;;;;;;;13.44;84.46;95995.66;5034506;28;20060;-79
2021/07/22 00:53:34;;;;;;;16.95;9.68;;;;;;;13.46;84.34;95982.94;5037062;28;20055;-79
2021/07/22 00:56:00;;;;;;;16.90;9.60;;;;;;;13.43;84.14;95984.31;5052470;28;20103;-79
2021/07/22 00:58:25;;;;;;;20.50;10.30;;;;;;;13.17;84.94;95981.00;5029162;28;20045;-79
2021/07/22 01:00:51;;;;;;;16.33;9.48;;;;;;;13.33;85.18;95984.34;5036367;28;20041;-79
2021/07/22 01:03:16;;;;;;;17.33;9.45;;;;;;;13.34;85.33;95978.81;5031344;28;20522;-79
2021/07/22 01:05:42;;;;;;;17.60;9.65;;;;;;;13.38;85.33;95975.63;5048361;28;20112;-79
2021/07/22 01:08:07;;;;;;;17.65;9.77;;;;;;;13.36;85.13;95973.25;5056450;28;20410;-79
2021/07/22 01:10:33;;;;;;;19.15;10.00;;;;;;;13.14;85.90;95965.69;5036857;28;20643;-78
2021/07/22 01:12:58;;;;;;;19.05;10.20;;;;;;;12.99;87.06;95977.16;5034955;28;20499;-79
2021/07/22 01:15:24;;;;;;;16.77;9.43;;;;;;;12.90;87.35;95971.66;5043025;28;20040;-79
2021/07/22 01:17:50;;;;;;;17.85;9.70;;;;;;;12.98;86.98;95973.72;5049943;28;20469;-79
2021/07/22 01:20:19;;;;;;;18.42;9.70;;;;;;;13.10;86.15;95969.94;5041938;28;20777;-79
2021/07/22 01:22:46;;;;;;;16.13;9.48;;;;;;;13.03;86.31;95969.47;5046296;28;20036;-79
2021/07/22 01:25:13;;;;;;;17.48;9.68;;;;;;;13.06;86.01;95974.19;5049025;28;20076;-79
2021/07/22 01:27:39;;;;;;;16.02;9.13;;;;;;;13.15;86.03;95973.34;5043942;28;20034;-79
2021/07/22 01:30:05;;;;;;;20.70;9.75;;;;;;;13.14;85.88;95970.97;5034238;28;20053;-79
2021/07/22 01:32:31;;;;;;;17.38;9.80;;;;;;;13.06;85.43;95966.28;5044853;28;20578;-79
2021/07/22 01:34:57;;;;;;;19.10;9.85;;;;;;;13.01;86.82;95967.09;5033973;28;20045;-79
2021/07/22 01:37:23;;;;;;;17.73;9.43;;;;;;;13.00;86.86;95971.59;5047793;28;20041;-79
2021/07/22 01:39:48;;;;;;;18.65;10.50;;;;;;;13.00;86.71;95966.31;5040131;28;20037;-78
2021/07/22 01:42:14;;;;;;;16.73;9.75;;;;;;;12.90;86.38;95963.75;5037666;28;20080;-79
2021/07/22 01:44:40;;;;;;;17.23;10.15;;;;;;;12.86;86.54;95965.34;5036136;28;20121;-79
2021/07/22 01:47:05;;;;;;;18.00;10.57;;;;;;;12.87;86.57;95964.25;5050406;28;20044;-79
2021/07/22 01:49:32;;;;;;;16.65;9.40;;;;;;;12.87;86.53;95966.13;5050151;28;20139;-79
2021/07/22 01:52:01;;;;;;;16.80;9.70;;;;;;;12.75;86.98;95959.31;5045147;28;20045;-79
2021/07/22 01:54:28;;;;;;;16.00;9.45;;;;;;;12.64;87.16;95966.50;5051236;28;20740;-79
2021/07/22 01:56:56;;;;;;;17.73;9.85;;;;;;;12.71;86.76;95968.03;5045223;28;20068;-78
2021/07/22 01:59:22;;;;;;;19.73;9.27;;;;;;;12.69;87.59;95964.91;5038466;28;20744;-79
2021/07/22 02:01:47;;;;;;;17.52;9.38;;;;;;;12.71;87.46;95962.75;5054568;28;20040;-79
2021/07/22 02:04:13;;;;;;;14.45;8.85;;;;;;;12.77;87.02;95956.38;5040519;28;20041;-79
2021/07/22 02:06:39;;;;;;;16.38;9.32;;;;;;;12.84;86.62;95962.16;5040296;28;20112;-79
2021/07/22 02:09:05;;;;;;;17.13;9.70;;;;;;;12.78;85.83;95964.03;5048535;28;21138;-79
2021/07/22 02:11:30;;;;;;;18.13;9.77;;;;;;;12.64;86.41;95966.50;5042510;28;20104;-79
2021/07/22 02:13:56;;;;;;;15.02;9.43;;;;;;;12.67;87.49;95961.72;5044691;28;20045;-79
2021/07/22 02:16:21;;;;;;;16.08;9.20;;;;;;;12.64;87.45;95963.84;5046092;28;20508;-79
2021/07/22 02:18:48;;;;;;;16.08;9.82;;;;;;;12.64;87.29;95963.06;5040217;28;20072;-78
2021/07/22 02:21:13;;;;;;;14.88;9.35;;;;;;;12.69;87.28;95964.91;5034005;28;20046;-79
2021/07/22 02:23:39;;;;;;;16.92;9.48;;;;;;;12.61;87.60;95972.31;5044910;28;20033;-79
2021/07/22 02:26:05;;;;;;;18.15;9.80;;;;;;;12.62;87.50;95965.19;5036099;28;20044;-80
2021/07/22 02:28:32;;;;;;;19.52;9.07;;;;;;;12.53;87.70;95970.25;5040673;28;20050;-79
2021/07/22 02:30:58;;;;;;;15.77;9.35;;;;;;;12.47;87.99;95984.53;5039590;28;20581;-79
2021/07/22 02:33:23;;;;;;;14.98;8.95;;;;;;;12.51;87.90;95974.19;5034458;28;20033;-80
2021/07/22 02:35:49;;;;;;;16.65;9.98;;;;;;;12.42;88.56;95981.88;5039636;28;20056;-79
2021/07/22 02:38:15;;;;;;;16.75;9.40;;;;;;;12.34;87.84;95974.50;5032899;28;20052;-78
2021/07/22 02:40:40;;;;;;;18.85;9.55;;;;;;;12.32;87.87;95981.94;5038750;28;20415;-79
2021/07/22 02:43:06;;;;;;;16.52;9.45;;;;;;;12.13;89.19;95975.34;5033361;28;20041;-79
2021/07/22 02:45:32;;;;;;;16.80;10.27;;;;;;;12.20;88.91;95969.81;5033954;28;20049;-79
2021/07/22 02:47:57;;;;;;;15.98;8.95;;;;;;;12.27;88.80;95972.97;5038440;28;20582;-78
2021/07/22 02:50:23;;;;;;;18.33;10.23;;;;;;;12.38;87.68;95980.84;5034039;28;20043;-79
2021/07/22 02:52:49;;;;;;;18.63;9.82;;;;;;;12.31;88.38;95975.84;5040720;28;20037;-79
2021/07/22 02:55:14;;;;;;;16.30;9.57;;;;;;;12.35;88.24;95981.38;5050010;28;20458;-79
2021/07/22 02:57:40;;;;;;;15.43;9.15;;;;;;;12.20;87.40;95990.91;5045622;28;20041;-78
2021/07/22 03:00:07;;;;;;;19.15;9.45;;;;;;;12.14;88.23;95981.44;5054275;28;20045;-80
2021/07/22 03:02:33;;;;;;;17.98;9.60;;;;;;;12.19;88.17;95980.63;5039898;28;20041;-79
2021/07/22 03:04:58;;;;;;;17.10;9.13;;;;;;;12.19;88.14;95989.34;5032442;28;20459;-79
2021/07/22 03:07:24;;;;;;;19.40;10.25;;;;;;;12.17;87.74;95985.38;5031548;28;20049;-79
2021/07/22 03:09:50;;;;;;;16.33;9.20;;;;;;;12.00;88.54;95986.47;5053935;28;20754;-79
2021/07/22 03:12:16;;;;;;;17.38;9.52;;;;;;;12.02;88.28;95983.56;5040272;28;20064;-80
2021/07/22 03:14:41;;;;;;;15.85;9.13;;;;;;;11.94;89.12;95984.91;5042330;28;20040;-80
2021/07/22 03:17:07;;;;;;;18.77;9.13;;;;;;;12.07;87.83;95981.72;5048395;28;20041;-79
2021/07/22 03:19:33;;;;;;;16.58;10.00;;;;;;;12.01;88.33;95976.69;5034914;28;20045;-78
2021/07/22 03:21:58;;;;;;;18.60;9.63;;;;;;;12.13;88.40;95979.84;5037901;28;20041;-78
2021/07/22 03:24:25;;;;;;;19.48;9.35;;;;;;;12.17;88.47;95986.19;5042700;28;20033;-79
2021/07/22 03:26:52;;;;;;;15.43;9.40;;;;;;;12.03;88.93;95985.16;5042493;28;20037;-79
2021/07/22 03:29:17;;;;;;;21.88;10.30;;;;;;;12.03;89.13;95982.50;5036488;28;20037;-78
2021/07/22 03:31:43;;;;;;;17.52;9.63;;;;;;;12.10;88.31;95980.38;5033848;28;20038;-81
2021/07/22 03:34:08;;;;;;;17.13;10.07;;;;;;;12.02;88.70;95984.34;5039968;28;20041;-81
2021/07/22 03:36:34;;;;;;;17.85;9.57;;;;;;;11.90;89.54;95976.69;5047512;28;20044;-81
2021/07/22 03:38:59;;;;;;;20.20;9.60;;;;;;;11.88;89.14;95978.81;5043604;28;20064;-80
2021/07/22 03:41:26;;;;;;;17.98;9.00;;;;;;;11.93;88.57;95984.09;5032334;28;20033;-80
2021/07/22 03:43:52;;;;;;;21.23;9.73;;;;;;;11.94;88.27;95983.06;5031224;28;20048;-80
2021/07/22 03:46:17;;;;;;;16.48;9.70;;;;;;;11.81;88.67;95978.28;5032316;28;20037;-80
2021/07/22 03:48:44;;;;;;;15.48;9.43;;;;;;;11.69;89.97;95985.69;5035920;28;20041;-79
2021/07/22 03:51:10;;;;;;;18.67;9.75;;;;;;;11.87;88.76;95985.13;5030609;28;20120;-79
2021/07/22 03:53:35;;;;;;;20.08;9.68;;;;;;;12.01;88.57;95982.78;5029965;28;20121;-79
2021/07/22 03:56:01;;;;;;;20.15;10.30;;;;;;;12.04;87.94;95984.06;5033081;28;20702;-79
2021/07/22 03:58:27;;;;;;;19.23;9.60;;;;;;;11.94;88.22;95983.06;5038741;28;20045;-79
2021/07/22 04:00:57;;;;;;;17.30;9.43;;;;;;;11.95;88.10;95989.91;5029954;28;20049;-79
2021/07/22 04:03:25;;;;;;;21.05;10.13;;;;;;;11.91;88.38;95988.03;5041480;28;20041;-79
2021/07/22 04:05:51;;;;;;;19.85;9.93;;;;;;;11.78;88.62;95995.44;5038381;28;20053;-80
2021/07/22 04:08:17;;;;;;;17.50;9.98;;;;;;;11.77;89.34;95993.06;5038520;28;20491;-79
2021/07/22 04:10:42;;;;;;;16.77;9.65;;;;;;;12.01;88.80;96005.72;5038854;28;20055;-79
2021/07/22 04:13:08;;;;;;;18.13;9.25;;;;;;;11.99;88.93;96010.47;5041762;28;20041;-79
2021/07/22 04:15:34;;;;;;;16.00;9.75;;;;;;;11.83;89.39;96002.53;5044960;28;20041;-79
2021/07/22 04:18:00;;;;;;;17.92;9.93;;;;;;;11.80;90.09;96003.06;5030779;28;20037;-79
2021/07/22 04:20:27;;;;;;;19.55;9.95;;;;;;;11.89;90.30;96001.47;5038733;28;20040;-79
2021/07/22 04:22:58;;;;;;;17.40;9.57;;;;;;;12.03;89.50;96000.97;5040795;28;20049;-79
2021/07/22 04:25:24;;;;;;;16.38;9.52;;;;;;;12.07;89.96;96004.69;5035919;28;20036;-79
2021/07/22 04:27:49;;;;;;;17.30;9.88;;;;;;;12.11;89.28;95997.78;5033272;28;20060;-79
2021/07/22 04:30:15;;;;;;;16.63;9.85;;;;;;;12.19;89.59;96004.38;5048195;28;20073;-79
2021/07/22 04:32:41;;;;;;;18.42;10.23;;;;;;;12.22;89.62;96003.84;5038167;28;20053;-79
2021/07/22 04:35:09;;;;;;;17.98;10.20;;;;;;;12.15;89.55;96001.47;5037840;28;20045;-79
2021/07/22 04:37:38;;;;;;;16.20;9.35;;;;;;;12.14;89.80;95997.28;5037718;28;20097;-79
2021/07/22 04:40:06;;;;;;;20.55;10.98;;;;;;;12.20;90.58;96000.69;5037272;28;20124;-81
2021/07/22 04:42:33;;;;;;;21.38;10.30;;;;;;;12.24;90.39;96002.53;5034759;28;20045;-79
2021/07/22 04:44:58;;;;;;;20.63;11.43;;;;;;;12.21;90.75;95999.63;5049626;28;20041;-79
2021/07/22 04:47:24;;;;;;;20.58;11.00;;;;;;;12.29;90.80;95994.56;5051705;28;20040;-79
2021/07/22 04:49:50;;;;;;;18.77;10.98;;;;;;;12.42;90.33;95997.72;5031361;28;20037;-79
2021/07/22 04:52:15;;;;;;;17.52;10.65;;;;;;;12.50;90.33;95988.44;5030012;28;20052;-79
2021/07/22 04:54:41;;;;;;;17.77;10.75;;;;;;;12.53;90.38;95988.72;5040444;28;20541;-79
2021/07/22 04:57:06;;;;;;;19.38;10.40;;;;;;;12.51;90.70;95993.47;5038975;28;20048;-79
2021/07/22 04:59:31;;;;;;;19.23;10.80;;;;;;;12.61;90.42;95993.44;5047461;28;20486;-79
2021/07/22 05:01:57;;;;;;;19.42;11.23;;;;;;;12.73;90.14;95995.78;5039306;28;20123;-79
2021/07/22 05:04:22;;;;;;;20.90;10.77;;;;;;;12.86;89.75;95991.75;5042847;28;20037;-79
2021/07/22 05:06:48;;;;;;;19.55;10.85;;;;;;;12.86;89.40;95986.47;5048196;28;20090;-79
2021/07/22 05:09:13;;;;;;;19.75;10.40;;;;;;;12.91;89.83;95994.34;5030287;28;20103;-79
2021/07/22 05:11:39;;;;;;;19.40;11.35;;;;;;;12.90;89.62;95994.63;5028210;28;20042;-79
2021/07/22 05:14:04;;;;;;;19.00;10.88;;;;;;;12.91;90.40;95988.28;5042425;28;20106;-80
2021/07/22 05:16:30;;;;;;;19.17;10.70;;;;;;;13.02;90.55;95994.31;5041466;28;20602;-79
2021/07/22 05:18:55;;;;;;;17.55;10.52;;;;;;;13.16;89.85;95995.28;5039545;28;20037;-79
2021/07/22 05:21:21;;;;;;;18.73;10.82;;;;;;;13.26;89.11;95995.22;5040298;28;20095;-79
2021/07/22 05:23:47;;;;;;;22.35;11.50;;;;;;;13.32;89.01;95994.13;5034463;28;20041;-79
2021/07/22 05:26:13;;;;;;;22.90;11.10;;;;;;;13.55;89.18;96001.66;5030634;28;20041;-79
2021/07/22 05:28:39;;;;;;;20.33;11.60;;;;;;;13.59;89.05;96003.50;5029657;28;20042;-79
2021/07/22 05:31:09;;;;;;;20.77;10.43;;;;;;;13.57;89.47;95995.03;5029556;28;20042;-79
2021/07/22 05:33:35;;;;;;;21.05;11.23;;;;;;;13.61;90.37;95996.06;5035617;28;20435;-79
2021/07/22 05:36:06;;;;;;;22.33;12.20;;;;;;;13.76;89.08;96002.31;5040526;28;20068;-79
2021/07/22 05:38:33;;;;;;;20.02;10.80;;;;;;;13.82;89.78;95995.88;5040342;28;20048;-79
2021/07/22 05:41:02;;;;;;;21.40;11.45;;;;;;;13.83;89.65;95986.91;5037503;28;20048;-79
2021/07/22 05:43:28;;;;;;;23.17;11.95;;;;;;;13.99;88.62;95996.28;5037484;28;20037;-79
2021/07/22 05:45:54;;;;;;;21.95;11.63;;;;;;;14.01;89.33;96003.94;5033532;28;20493;-79
2021/07/22 05:48:20;;;;;;;26.38;12.40;;;;;;;14.12;89.79;95999.34;5049154;28;20092;-79
2021/07/22 05:50:46;;;;;;;21.33;11.25;;;;;;;14.18;90.66;95998.25;5038658;28;20044;-79
2021/07/22 05:53:12;;;;;;;21.63;12.02;;;;;;;14.20;90.93;95991.56;5036521;28;20045;-79
2021/07/22 05:55:38;;;;;;;21.25;11.82;;;;;;;14.51;90.23;95985.97;5030912;28;20037;-79
2021/07/22 05:58:03;;;;;;;22.55;12.50;;;;;;;14.88;87.51;95988.97;5038080;28;20041;-79
2021/07/22 06:00:29;;;;;;;23.73;12.15;;;;;;;14.98;87.39;95988.84;5031221;28;20041;-79
2021/07/22 06:02:54;;;;;;;21.23;12.35;;;;;;;14.80;88.90;95982.47;5041105;28;20449;-79
2021/07/22 06:05:20;;;;;;;23.88;12.38;;;;;;;14.81;89.26;95993.84;5031084;28;20041;-79
2021/07/22 06:07:46;;;;;;;24.80;12.43;;;;;;;14.82;89.11;95990.13;5035660;28;20056;-79
2021/07/22 06:10:15;;;;;;;25.05;12.30;;;;;;;14.89;88.49;95990.56;5040511;28;20049;-79
2021/07/22 06:12:41;;;;;;;22.35;12.65;;;;;;;14.95;88.57;95989.41;5035299;28;20072;-79
2021/07/22 06:15:08;;;;;;;21.98;12.98;;;;;;;14.96;89.01;95991.00;5041850;28;20045;-80
2021/07/22 06:17:34;;;;;;;20.45;11.98;;;;;;;15.18;88.53;95992.31;5036195;28;20034;-79
2021/07/22 06:20:00;;;;;;;25.02;12.77;;;;;;;15.27;88.16;95989.78;5045131;28;20048;-79
2021/07/22 06:22:26;;;;;;;24.25;12.88;;;;;;;15.33;88.82;95994.75;5039254;28;20042;-79
2021/07/22 06:24:51;;;;;;;22.05;13.00;;;;;;;15.28;88.52;95994.81;5036527;28;20473;-79
2021/07/22 06:27:17;;;;;;;22.88;12.75;;;;;;;15.28;89.46;95996.69;5037206;28;20087;-79
2021/07/22 06:29:42;;;;;;;23.50;13.57;;;;;;;15.31;90.03;95993.44;5038060;28;20046;-79
2021/07/22 06:32:08;;;;;;;22.10;13.40;;;;;;;15.61;88.90;95994.84;5038645;28;20052;-79
2021/07/22 06:34:34;;;;;;;22.98;13.82;;;;;;;15.77;87.26;95993.53;5034594;28;20482;-79
2021/07/22 06:36:59;;;;;;;24.25;13.38;;;;;;;15.79;87.02;96000.44;5033501;28;20406;-79
2021/07/22 06:39:25;;;;;;;23.75;13.13;;;;;;;15.86;87.90;95995.53;5033790;28;20037;-79
2021/07/22 06:41:56;;;;;;;26.02;13.10;;;;;;;16.37;84.50;95994.66;5036229;28;20128;-78
2021/07/22 06:44:22;;;;;;;22.13;13.30;;;;;;;16.26;84.93;96003.88;5055581;28;20045;-79
2021/07/22 06:46:47;;;;;;;24.58;13.50;;;;;;;16.21;85.91;95988.84;5035618;28;20041;-79
2021/07/22 06:49:13;;;;;;;27.38;13.38;;;;;;;16.23;86.30;95993.84;5045652;28;20100;-79
2021/07/22 06:51:38;;;;;;;21.10;12.55;;;;;;;16.21;87.95;95996.03;5035710;28;20040;-79
2021/07/22 06:54:06;;;;;;;24.58;13.55;;;;;;;16.34;86.76;95995.25;5034196;28;20065;-83
2021/07/22 06:56:31;;;;;;;24.55;13.38;;;;;;;16.28;86.83;95985.81;5047699;28;20140;-79
2021/07/22 06:58:57;;;;;;;21.60;13.43;;;;;;;16.87;84.09;95990.53;5040192;28;20605;-79
2021/07/22 07:01:23;;;;;;;21.92;12.60;;;;;;;16.86;82.80;95986.28;5049528;28;20501;-79
2021/07/22 07:03:49;;;;;;;25.10;13.63;;;;;;;17.38;80.63;95989.41;5040988;28;20064;-80
2021/07/22 07:06:14;;;;;;;21.88;12.88;;;;;;;17.27;80.69;95988.09;5044676;28;20116;-79
2021/07/22 07:08:40;;;;;;;23.40;13.65;;;;;;;17.52;79.14;95989.38;5050641;28;20044;-79
2021/07/22 07:11:08;;;;;;;21.40;12.50;;;;;;;17.70;76.61;95990.31;5032967;28;20059;-80
2021/07/22 07:13:35;;;;;;;19.50;12.75;;;;;;;17.78;76.48;95986.88;5037568;28;20495;-79
2021/07/22 07:16:09;;;;;;;24.15;12.52;;;;;;;17.70;77.91;95990.31;5046621;28;20056;-79
2021/07/22 07:18:35;;;;;;;23.90;13.18;;;;;;;17.54;80.50;95989.06;5042715;28;20032;-81
2021/07/22 07:21:04;;;;;;;21.75;13.18;;;;;;;17.49;81.35;95988.09;5045464;28;20056;-79
2021/07/22 07:23:31;;;;;;;24.80;13.60;;;;;;;17.40;82.23;95987.25;5039212;28;20045;-81
2021/07/22 07:25:56;;;;;;;27.92;13.13;;;;;;;17.40;80.41;95976.63;5036228;28;20045;-82
2021/07/22 07:28:22;;;;;;;22.27;13.43;;;;;;;17.48;79.33;95983.88;5045623;28;20495;-81
2021/07/22 07:30:48;;;;;;;21.27;13.23;;;;;;;17.81;78.13;95982.84;5035434;28;20037;-79
2021/07/22 07:33:13;;;;;;;22.52;12.75;;;;;;;17.87;78.67;95978.19;5037406;28;20623;-80
2021/07/22 07:35:39;;;;;;;26.27;13.27;;;;;;;17.83;78.27;95984.13;5045776;28;20043;-83
2021/07/22 07:38:05;;;;;;;22.73;13.55;;;;;;;17.82;77.24;95977.22;5046332;28;20037;-83
2021/07/22 07:40:31;;;;;;;24.70;12.98;;;;;;;17.71;76.72;95973.22;5046211;28;20049;-80
2021/07/22 07:42:56;;;;;;;21.60;12.65;;;;;;;17.70;79.54;95978.84;5040143;28;20563;-79
2021/07/22 07:45:22;;;;;;;22.95;13.38;;;;;;;17.83;80.59;95978.00;5046601;28;20041;-81
2021/07/22 07:47:47;;;;;;;20.42;12.70;;;;;;;18.14;78.10;95958.63;5045058;28;20042;-81
2021/07/22 07:50:13;;;;;;;23.83;12.48;;;;;;;18.06;78.89;95965.47;5039908;28;20495;-80
2021/07/22 07:52:39;;;;;;;21.17;12.68;;;;;;;18.63;75.98;95961.28;5042776;28;20042;-80
2021/07/22 07:55:07;;;;;;;24.88;12.80;;;;;;;18.79;74.40;95965.09;5039447;28;20045;-77
2021/07/22 07:57:33;;;;;;;22.88;12.38;;;;;;;18.85;73.58;95966.53;5043303;28;20675;-81
2021/07/22 07:59:59;;;;;;;21.50;13.00;;;;;;;18.92;71.55;95967.97;5039778;28;20034;-80
2021/07/22 08:02:24;;;;;;;23.60;12.65;;;;;;;18.86;74.16;95960.13;5040633;28;20033;-82
2021/07/22 08:04:50;;;;;;;24.75;12.90;;;;;;;18.92;72.73;95962.63;5041353;28;20038;-81
2021/07/22 08:07:16;;;;;;;25.67;12.98;;;;;;;19.11;72.94;95965.81;5043144;28;20052;-81
2021/07/22 08:09:41;;;;;;;18.88;12.25;;;;;;;18.97;74.34;95965.16;5041619;28;20048;-85
2021/07/22 08:12:07;;;;;;;20.92;12.13;;;;;;;18.99;74.14;95970.94;5046434;28;20123;-80
2021/07/22 08:14:36;;;;;;;22.88;12.57;;;;;;;19.26;71.73;95974.44;5053926;28;20422;-80
2021/07/22 08:17:05;;;;;;;23.77;12.73;;;;;;;19.35;73.21;95969.88;5041375;28;20762;-78
2021/07/22 08:19:32;;;;;;;23.25;12.85;;;;;;;19.44;70.24;95969.88;5036892;28;20045;-77
2021/07/22 08:21:57;;;;;;;18.90;11.65;;;;;;;19.30;70.62;95967.38;5030692;28;20056;-78
2021/07/22 08:24:23;;;;;;;19.70;11.70;;;;;;;19.27;72.91;95974.13;5037339;28;20041;-77
2021/07/22 08:26:48;;;;;;;25.33;12.13;;;;;;;19.14;74.08;95975.84;5046276;28;20037;-79
2021/07/22 08:29:14;;;;;;;22.02;12.10;;;;;;;19.52;70.35;95969.09;5036749;28;20047;-77
2021/07/22 08:31:39;;;;;;;21.45;11.93;;;;;;;19.37;70.43;95973.81;5039258;28;20044;-77
2021/07/22 08:34:05;;;;;;;19.95;11.00;;;;;;;19.69;68.87;95962.94;5033239;28;20095;-77
2021/07/22 08:36:30;;;;;;;21.80;12.25;;;;;;;19.89;69.84;95972.97;5030337;28;20415;-78
2021/07/22 08:38:56;;;;;;;20.45;11.30;;;;;;;19.85;69.26;95972.03;5033473;28;20136;-77
2021/07/22 08:41:21;;;;;;;18.88;11.43;;;;;;;20.17;69.48;95966.47;5044397;28;20045;-77
2021/07/22 08:43:51;;;;;;;21.40;11.65;;;;;;;20.06;66.93;95966.03;5027105;28;20506;-79
2021/07/22 08:46:19;;;;;;;19.30;11.15;;;;;;;19.87;67.87;95964.50;5036690;28;20055;-78
2021/07/22 08:48:45;;;;;;;18.45;11.20;;;;;;;19.87;69.50;95972.53;5032830;28;20041;-78
2021/07/22 08:51:11;;;;;;;18.88;10.82;;;;;;;20.10;69.33;95958.97;5037436;28;20487;-78
2021/07/22 08:53:37;;;;;;;18.88;11.52;;;;;;;20.32;67.14;95957.16;5032505;28;20045;-78
2021/07/22 08:56:07;;;;;;;18.10;10.52;;;;;;;20.32;64.10;95957.94;5033821;28;20049;-77
2021/07/22 08:58:39;;;;;;;23.55;10.50;;;;;;;20.32;64.47;95962.50;5044089;28;20045;-78
2021/07/22 09:01:09;;;;;;;17.50;10.38;;;;;;;20.48;64.25;95966.19;5036371;28;20040;-77
2021/07/22 09:03:35;;;;;;;15.18;10.40;;;;;;;20.50;60.82;95964.00;5033698;28;20125;-79
2021/07/22 09:06:12;;;;;;;16.85;9.75;;;;;;;20.52;61.55;95956.41;5030356;28;20167;-77
2021/07/22 09:08:37;;;;;;;17.50;10.68;;;;;;;20.49;63.76;95962.41;5043476;28;20044;-78
2021/07/22 09:11:08;;;;;;;22.50;10.55;;;;;;;20.85;62.67;95958.47;5039206;28;20048;-78
2021/07/22 09:13:34;;;;;;;18.95;10.98;;;;;;;20.91;60.42;95956.38;5040240;28;20503;-79
2021/07/22 09:16:00;;;;;;;20.38;11.20;;;;;;;20.85;59.55;95953.13;5031484;28;20048;-77
2021/07/22 09:18:31;;;;;;;17.45;10.20;;;;;;;21.04;62.49;95954.56;5033602;28;20029;-77
2021/07/22 09:20:57;;;;;;;19.13;10.45;;;;;;;21.00;60.60;95948.31;5038942;28;20497;-78
2021/07/22 09:23:25;;;;;;;22.52;10.18;;;;;;;21.28;56.21;95953.94;5032574;28;20515;-77
2021/07/22 09:25:52;;;;;;;22.02;10.63;;;;;;;21.26;58.89;95956.94;5040451;28;20113;-78
2021/07/22 09:28:21;;;;;;;18.27;10.48;;;;;;;21.89;55.79;95956.06;5050036;28;20067;-77
2021/07/22 09:30:58;;;;;;;19.92;10.68;;;;;;;22.07;55.84;95953.22;5041405;28;20049;-77
2021/07/22 09:33:33;;;;;;;16.65;10.02;;;;;;;21.79;57.52;95940.41;5035085;28;20045;-78
2021/07/22 09:35:59;;;;;;;16.55;10.75;;;;;;;21.82;57.44;95945.09;5044259;28;20037;-80
2021/07/22 09:38:27;;;;;;;20.55;10.90;;;;;;;21.78;57.31;95945.00;5033058;28;20142;-77
2021/07/22 09:40:53;;;;;;;19.58;10.90;;;;;;;21.78;56.19;95946.91;5034238;28;20512;-82
2021/07/22 09:43:39;;;;;;;18.27;10.75;;;;;;;22.02;55.71;95942.69;5034536;28;20142;-78
2021/07/22 09:46:06;;;;;;;16.58;10.77;;;;;;;21.87;55.45;95942.22;5031785;28;20041;-77
2021/07/22 09:48:32;;;;;;;20.15;10.57;;;;;;;21.92;57.07;95939.34;5037598;28;20418;-76
2021/07/22 09:50:57;;;;;;;15.88;10.77;;;;;;;22.15;54.95;95942.38;5037416;28;20041;-78
2021/07/22 09:53:25;;;;;;;18.98;11.30;;;;;;;22.24;53.52;95936.91;5033609;28;20495;-80
2021/07/22 09:55:56;;;;;;;16.92;10.48;;;;;;;22.52;53.09;95930.91;5043258;28;20037;-78
2021/07/22 09:58:22;;;;;;;19.58;10.57;;;;;;;22.36;52.50;95922.00;5040646;28;20042;-77
2021/07/22 10:00:51;;;;;;;16.33;10.45;;;;;;;22.59;54.26;95928.44;5041423;28;20049;-79
2021/07/22 10:03:19;;;;;;;19.45;10.57;;;;;;;22.99;53.95;95925.03;5043769;28;20068;-76
2021/07/22 10:05:47;;;;;;;16.73;10.38;;;;;;;23.01;51.80;95922.81;5041921;28;20101;-78
2021/07/22 10:08:19;;;;;;;19.02;10.82;;;;;;;22.76;51.74;95915.94;5034192;28;20050;-78
2021/07/22 10:10:50;;;;;;;16.75;10.65;;;;;;;23.00;54.51;95923.13;5038916;28;20482;-77
2021/07/22 10:13:16;;;;;;;20.02;10.88;;;;;;;23.11;51.52;95912.72;5044962;28;20071;-78
2021/07/22 10:15:43;;;;;;;21.60;10.27;;;;;;;23.48;53.73;95912.59;5043907;28;20487;-79
2021/07/22 10:18:09;;;;;;;17.05;9.93;;;;;;;23.64;52.84;95916.09;5044677;28;20087;-82
2021/07/22 10:20:35;;;;;;;15.63;10.23;;;;;;;23.80;52.01;95910.72;5045210;28;20049;-76
2021/07/22 10:23:02;;;;;;;16.08;10.52;;;;;;;24.17;50.96;95915.13;5036409;28;20132;-77
2021/07/22 10:25:28;;;;;;;18.27;10.43;;;;;;;24.23;50.45;95913.72;5041372;28;20513;-77
2021/07/22 10:27:56;;;;;;;16.60;11.07;;;;;;;24.67;48.74;95920.94;5046064;28;20045;-78
2021/07/22 10:30:23;;;;;;;15.73;10.35;;;;;;;24.85;46.36;95910.53;5040229;28;20053;-77
2021/07/22 10:32:58;;;;;;;14.73;10.20;;;;;;;24.70;47.93;95912.91;5040878;28;20064;-77
2021/07/22 10:35:30;;;;;;;19.90;10.82;;;;;;;24.17;47.94;95910.53;5037293;28;20041;-78
2021/07/22 10:38:10;;;;;;;17.77;10.45;;;;;;;23.79;47.31;95916.44;5048900;28;20044;-77
2021/07/22 10:40:59;;;;;;;17.23;10.27;;;;;;;24.85;48.88;95911.31;5059742;28;20032;-79
2021/07/22 10:46:05;;;;;;;20.15;11.27;;;;;;;25.37;42.77;95909.31;5037428;28;20162;-78
2021/07/22 10:48:31;;;;;;;18.85;11.15;;;;;;;25.65;46.78;95902.13;5032961;28;20052;-79
2021/07/22 10:50:57;;;;;;;18.35;11.30;;;;;;;26.11;42.35;95911.03;5039486;28;20045;-80
2021/07/22 10:53:48;;;;;;;18.77;11.02;;;;;;;25.62;43.90;95897.47;5033049;28;20505;-79
2021/07/22 10:56:18;;;;;;;19.27;10.73;;;;;;;25.62;45.47;95898.22;5034087;28;20049;-83
2021/07/22 10:58:43;;;;;;;17.85;10.38;;;;;;;25.28;46.05;95900.63;5035022;28;20041;-79
2021/07/22 11:01:09;;;;;;;19.25;11.50;;;;;;;24.75;47.34;95900.31;5034607;28;20045;-79
2021/07/22 11:03:34;;;;;;;17.70;10.93;;;;;;;24.48;47.94;95900.09;5040390;28;20059;-80
2021/07/22 11:06:01;;;;;;;19.13;11.80;;;;;;;25.13;43.85;95898.78;5031865;28;20037;-79
2021/07/22 11:08:29;;;;;;;16.33;10.77;;;;;;;25.56;46.70;95899.66;5032959;28;20041;-79
2021/07/22 11:10:56;;;;;;;18.85;11.50;;;;;;;25.29;44.00;95896.81;5036155;28;20415;-78
2021/07/22 11:13:36;;;;;;;17.20;11.20;;;;;;;25.55;43.01;95898.88;5045535;28;20106;-80
2021/07/22 11:16:04;;;;;;;18.33;11.40;;;;;;;26.15;43.45;95894.13;5041890;28;20045;-81
2021/07/22 11:18:44;;;;;;;16.52;11.50;;;;;;;26.18;43.09;95891.50;5044501;28;20112;-79
2021/07/22 11:21:28;;;;;;;17.30;10.88;;;;;;;28.20;39.17;95879.63;5029944;28;20041;-81